createdAt,value
2017-10-27T00:00:37.027Z,3.20
2017-10-27T00:03:04.570Z,3.07
2017-10-27T00:05:31.974Z,4.60
2017-10-27T00:07:59.410Z,3.90
2017-10-27T00:10:27.354Z,3.33
2017-10-27T00:12:54.785Z,2.93
2017-10-27T00:15:22.995Z,4.23
2017-10-27T00:17:50.423Z,3.97
2017-10-27T00:20:17.838Z,3.60
2017-10-27T00:22:45.331Z,4.03
2017-10-27T00:25:12.745Z,3.73
2017-10-27T00:27:40.175Z,3.20
2017-10-27T00:30:08.362Z,3.57
2017-10-27T00:32:36.637Z,2.70
2017-10-27T00:35:04.034Z,2.50
2017-10-27T00:37:31.467Z,3.37
2017-10-27T00:39:59.657Z,3.87
2017-10-27T00:42:27.151Z,4.47
2017-10-27T00:44:54.573Z,4.10
2017-10-27T00:47:21.996Z,4.17
2017-10-27T00:49:49.454Z,3.93
2017-10-27T00:52:16.888Z,2.67
2017-10-27T00:54:44.310Z,3.57
2017-10-27T00:57:12.494Z,3.10
2017-10-27T00:59:39.927Z,2.03
2017-10-27T01:02:07.349Z,3.03
2017-10-27T01:04:34.778Z,2.60
2017-10-27T01:07:02.197Z,2.90
2017-10-27T01:09:29.616Z,2.30
2017-10-27T01:11:57.691Z,3.03
2017-10-27T01:14:25.118Z,2.40
2017-10-27T01:16:53.320Z,3.00
2017-10-27T01:19:20.738Z,2.87
2017-10-27T01:21:48.165Z,2.10
2017-10-27T01:24:15.629Z,2.57
2017-10-27T01:26:43.082Z,2.30
2017-10-27T01:29:10.538Z,1.90
2017-10-27T01:31:38.007Z,1.33
2017-10-27T01:34:05.470Z,1.93
2017-10-27T01:36:32.923Z,1.53
2017-10-27T01:39:00.338Z,1.63
2017-10-27T01:41:28.530Z,1.40
2017-10-27T01:43:56.716Z,1.70
2017-10-27T01:46:24.137Z,2.03
2017-10-27T01:48:53.100Z,0.90
2017-10-27T01:51:20.526Z,1.53
2017-10-27T01:53:48.718Z,1.53
2017-10-27T01:56:16.144Z,1.47
2017-10-27T01:58:44.379Z,1.40
2017-10-27T02:01:11.830Z,1.33
2017-10-27T02:03:39.306Z,1.00
2017-10-27T02:06:06.726Z,1.40
2017-10-27T02:08:34.923Z,1.07
2017-10-27T02:11:02.402Z,1.23
2017-10-27T02:13:29.841Z,1.30
2017-10-27T02:15:57.327Z,1.07
2017-10-27T02:18:24.775Z,0.90
2017-10-27T02:20:52.198Z,0.90
2017-10-27T02:23:20.385Z,1.30
2017-10-27T02:25:48.587Z,1.00
2017-10-27T02:28:16.005Z,1.00
2017-10-27T02:30:43.531Z,1.27
2017-10-27T02:33:10.954Z,1.33
2017-10-27T02:35:39.150Z,1.40
2017-10-27T02:38:06.579Z,1.77
2017-10-27T02:40:34.775Z,1.07
2017-10-27T02:43:02.199Z,1.50
2017-10-27T02:45:29.722Z,1.00
2017-10-27T02:47:57.203Z,1.87
2017-10-27T02:50:24.622Z,2.00
2017-10-27T02:52:52.050Z,1.67
2017-10-27T02:55:19.494Z,1.53
2017-10-27T02:57:46.914Z,1.80
2017-10-27T03:00:14.394Z,1.47
2017-10-27T03:02:41.826Z,1.43
2017-10-27T03:05:09.254Z,1.50
2017-10-27T03:07:37.542Z,1.40
2017-10-27T03:10:05.051Z,1.40
2017-10-27T03:12:32.484Z,1.80
2017-10-27T03:15:00.670Z,2.47
2017-10-27T03:17:28.102Z,1.33
2017-10-27T03:19:55.618Z,1.43
2017-10-27T03:22:23.079Z,1.50
2017-10-27T03:24:50.495Z,1.83
2017-10-27T03:27:18.713Z,2.40
2017-10-27T03:29:46.182Z,1.80
2017-10-27T03:32:13.634Z,1.17
2017-10-27T03:34:41.070Z,1.67
2017-10-27T03:37:08.494Z,1.90
2017-10-27T03:39:35.926Z,1.40
2017-10-27T03:42:03.345Z,2.00
2017-10-27T03:44:31.546Z,1.87
2017-10-27T03:46:58.971Z,1.87
2017-10-27T03:49:26.494Z,1.93
2017-10-27T03:51:53.942Z,1.93
2017-10-27T03:54:21.375Z,1.90
2017-10-27T03:56:49.582Z,1.43
2017-10-27T03:59:17.055Z,1.83
2017-10-27T04:01:44.483Z,1.20
2017-10-27T04:04:11.914Z,1.17
2017-10-27T04:06:39.429Z,2.03
2017-10-27T04:09:06.865Z,1.50
2017-10-27T04:11:34.358Z,0.93
2017-10-27T04:14:01.793Z,1.43
2017-10-27T04:16:29.278Z,1.50
2017-10-27T04:18:56.733Z,1.60
2017-10-27T04:21:24.204Z,1.90
2017-10-27T04:23:51.659Z,1.37
2017-10-27T04:26:19.095Z,1.97
2017-10-27T04:28:46.519Z,1.00
2017-10-27T04:31:14.712Z,1.40
2017-10-27T04:33:42.910Z,1.10
2017-10-27T04:36:10.490Z,1.83
2017-10-27T04:38:37.957Z,1.60
2017-10-27T04:41:05.426Z,1.03
2017-10-27T04:43:32.850Z,0.90
2017-10-27T04:46:01.161Z,0.80
2017-10-27T04:48:28.626Z,0.90
2017-10-27T04:50:56.041Z,0.97
2017-10-27T04:53:24.263Z,0.80
2017-10-27T04:55:51.683Z,1.03
2017-10-27T04:58:19.909Z,1.00
2017-10-27T05:00:47.367Z,1.10
2017-10-27T05:03:14.826Z,1.07
2017-10-27T05:05:42.274Z,0.80
2017-10-27T05:08:09.749Z,1.60
2017-10-27T05:10:37.169Z,1.10
2017-10-27T05:13:05.361Z,1.57
2017-10-27T05:15:32.850Z,1.50
2017-10-27T05:18:06.033Z,0.50
2017-10-27T05:20:39.088Z,1.37
2017-10-27T05:23:13.069Z,0.73
2017-10-27T05:25:40.486Z,1.43
2017-10-27T05:28:07.933Z,1.00
2017-10-27T05:30:35.421Z,1.00
2017-10-27T05:33:02.841Z,0.97
2017-10-27T05:35:31.109Z,1.20
2017-10-27T05:37:58.529Z,0.60
2017-10-27T05:40:25.962Z,1.27
2017-10-27T05:42:53.386Z,0.90
2017-10-27T05:45:20.814Z,0.93
2017-10-27T05:47:48.257Z,1.23
2017-10-27T05:50:15.730Z,1.20
2017-10-27T05:52:43.199Z,1.13
2017-10-27T05:55:10.651Z,0.97
2017-10-27T05:57:38.069Z,0.77
2017-10-27T06:00:06.298Z,0.80
2017-10-27T06:02:33.717Z,0.60
2017-10-27T06:05:01.919Z,0.50
2017-10-27T06:07:29.341Z,1.10
2017-10-27T06:09:56.794Z,0.80
2017-10-27T06:12:24.209Z,0.57
2017-10-27T06:14:51.642Z,1.20
2017-10-27T06:17:19.846Z,0.70
2017-10-27T06:19:47.270Z,0.93
2017-10-27T06:22:15.461Z,0.70
2017-10-27T06:24:43.645Z,0.97
2017-10-27T06:27:11.075Z,0.50
2017-10-27T06:29:38.494Z,0.43
2017-10-27T06:32:05.922Z,0.57
2017-10-27T06:34:33.344Z,0.50
2017-10-27T06:37:00.773Z,0.77
2017-10-27T06:39:28.198Z,0.33
2017-10-27T06:41:56.394Z,0.60
2017-10-27T06:44:23.819Z,0.37
2017-10-27T06:46:51.242Z,0.67
2017-10-27T06:49:18.662Z,0.70
2017-10-27T06:51:46.112Z,0.60
2017-10-27T06:54:14.306Z,0.80
2017-10-27T06:56:41.725Z,0.60
2017-10-27T06:59:09.250Z,0.40
2017-10-27T07:01:36.665Z,1.13
2017-10-27T07:04:04.894Z,0.57
2017-10-27T07:06:32.313Z,0.40
2017-10-27T07:09:00.535Z,0.60
2017-10-27T07:11:27.960Z,0.57
2017-10-27T07:13:56.160Z,0.47
2017-10-27T07:16:23.574Z,0.50
2017-10-27T07:18:51.009Z,1.03
2017-10-27T07:21:18.430Z,0.60
2017-10-27T07:23:45.853Z,0.57
2017-10-27T07:26:13.311Z,0.57
2017-10-27T07:28:40.742Z,0.70
2017-10-27T07:31:08.174Z,0.80
2017-10-27T07:33:35.657Z,0.77
2017-10-27T07:36:03.142Z,0.43
2017-10-27T07:38:30.587Z,0.53
2017-10-27T07:40:58.044Z,0.97
2017-10-27T07:43:25.510Z,0.77
2017-10-27T07:45:52.942Z,1.07
2017-10-27T07:48:20.361Z,0.63
2017-10-27T07:50:47.885Z,1.00
2017-10-27T07:53:15.350Z,0.50
2017-10-27T07:55:42.772Z,0.83
2017-10-27T07:58:10.987Z,0.60
2017-10-27T08:00:38.414Z,0.80
2017-10-27T08:03:06.635Z,0.60
2017-10-27T08:05:34.094Z,0.90
2017-10-27T08:08:01.602Z,0.77
2017-10-27T08:10:29.794Z,0.80
2017-10-27T08:12:58.015Z,1.43
2017-10-27T08:15:25.439Z,1.00
2017-10-27T08:17:53.635Z,0.70
2017-10-27T08:20:21.059Z,1.23
2017-10-27T08:22:49.254Z,0.70
2017-10-27T08:25:16.678Z,1.17
2017-10-27T08:27:44.210Z,0.73
2017-10-27T08:30:11.666Z,0.67
2017-10-27T08:32:39.087Z,1.00
2017-10-27T08:35:07.401Z,1.27
2017-10-27T08:37:34.878Z,0.50
2017-10-27T08:40:02.341Z,0.87
2017-10-27T08:42:29.802Z,0.60
2017-10-27T08:44:57.266Z,0.50
2017-10-27T08:47:24.722Z,0.30
2017-10-27T08:49:52.186Z,0.77
2017-10-27T08:52:19.610Z,1.13
2017-10-27T08:54:47.802Z,0.67
2017-10-27T08:57:15.278Z,1.10
2017-10-27T08:59:42.730Z,0.87
2017-10-27T09:02:10.166Z,0.50
2017-10-27T09:04:38.350Z,0.57
2017-10-27T09:07:06.611Z,0.80
2017-10-27T09:09:34.125Z,0.97
2017-10-27T09:12:01.553Z,0.50
2017-10-27T09:14:29.042Z,0.53
2017-10-27T09:16:56.510Z,1.10
2017-10-27T09:19:23.966Z,0.70
2017-10-27T09:21:51.398Z,0.67
2017-10-27T09:24:18.902Z,1.63
2017-10-27T09:26:46.352Z,0.80
2017-10-27T09:29:13.773Z,0.60
2017-10-27T09:31:41.981Z,0.50
2017-10-27T09:34:09.455Z,0.67
2017-10-27T09:36:36.886Z,0.43
2017-10-27T09:39:04.314Z,0.77
2017-10-27T09:41:31.742Z,0.90
2017-10-27T09:43:59.165Z,1.00
2017-10-27T09:46:27.354Z,0.53
2017-10-27T09:48:54.787Z,0.60
2017-10-27T09:51:22.969Z,0.67
2017-10-27T09:53:51.167Z,1.30
2017-10-27T09:56:18.593Z,0.50
2017-10-27T09:58:46.114Z,0.73
2017-10-27T10:01:13.574Z,1.00
2017-10-27T10:03:41.010Z,1.10
2017-10-27T10:06:08.477Z,0.70
2017-10-27T10:08:36.703Z,0.50
2017-10-27T10:11:04.118Z,0.53
2017-10-27T10:13:31.549Z,0.70
2017-10-27T10:15:59.774Z,0.60
2017-10-27T10:18:27.201Z,0.60
2017-10-27T10:20:55.393Z,0.90
2017-10-27T10:23:22.817Z,0.63
2017-10-27T10:25:50.247Z,0.80
2017-10-27T10:28:17.666Z,0.77
2017-10-27T10:30:45.107Z,0.50
2017-10-27T10:33:13.298Z,0.40
2017-10-27T10:35:41.490Z,0.50
2017-10-27T10:38:08.922Z,0.57
2017-10-27T10:40:37.117Z,0.50
2017-10-27T10:43:05.305Z,0.60
2017-10-27T10:45:32.742Z,0.83
2017-10-27T10:48:00.935Z,0.80
2017-10-27T10:50:29.135Z,0.40
2017-10-27T10:52:56.610Z,0.40
2017-10-27T10:55:24.045Z,1.03
2017-10-27T10:57:51.474Z,0.63
2017-10-27T11:00:18.911Z,0.60
2017-10-27T11:02:46.339Z,0.90
2017-10-27T11:05:13.781Z,0.70
2017-10-27T11:07:41.970Z,0.60
2017-10-27T11:10:09.396Z,1.13
2017-10-27T11:12:36.922Z,0.60
2017-10-27T11:15:04.363Z,1.03
2017-10-27T11:17:31.932Z,0.40
2017-10-27T11:19:59.405Z,0.60
2017-10-27T11:22:26.841Z,0.73
2017-10-27T11:24:54.263Z,0.60
2017-10-27T11:27:22.466Z,0.70
2017-10-27T11:29:50.649Z,0.50
2017-10-27T11:32:18.087Z,0.83
2017-10-27T11:34:45.510Z,0.83
2017-10-27T11:37:12.938Z,0.77
2017-10-27T11:39:40.426Z,0.70
2017-10-27T11:42:07.882Z,1.00
2017-10-27T11:44:35.351Z,0.83
2017-10-27T11:47:02.787Z,0.60
2017-10-27T11:49:30.222Z,0.90
2017-10-27T11:51:58.424Z,0.70
2017-10-27T11:54:26.005Z,0.60
2017-10-27T11:56:53.423Z,0.63
2017-10-27T11:59:21.614Z,0.60
2017-10-27T12:01:49.810Z,1.10
2017-10-27T12:04:17.287Z,0.70
2017-10-27T12:06:45.069Z,0.70
2017-10-27T12:09:12.504Z,0.60
2017-10-27T12:11:39.928Z,0.70
2017-10-27T12:14:07.358Z,0.60
2017-10-27T12:16:34.786Z,0.50
2017-10-27T12:19:02.216Z,0.60
2017-10-27T12:21:30.403Z,0.70
2017-10-27T12:23:58.603Z,0.93
2017-10-27T12:26:26.184Z,0.70
2017-10-27T12:28:53.653Z,1.00
2017-10-27T12:31:21.078Z,0.53
2017-10-27T12:33:48.509Z,0.60
2017-10-27T12:36:15.942Z,1.00
2017-10-27T12:38:43.379Z,0.40
2017-10-27T12:41:10.811Z,0.97
2017-10-27T12:43:39.134Z,1.40
2017-10-27T12:46:06.571Z,0.50
2017-10-27T12:48:33.989Z,0.50
2017-10-27T12:51:01.519Z,0.60
2017-10-27T12:53:28.946Z,0.73
2017-10-27T12:55:56.447Z,0.87
2017-10-27T12:58:23.899Z,0.80
2017-10-27T13:00:51.355Z,0.80
2017-10-27T13:03:18.822Z,0.90
2017-10-27T13:05:46.287Z,0.70
2017-10-27T13:08:13.738Z,0.93
2017-10-27T13:10:41.178Z,0.60
2017-10-27T13:13:08.666Z,0.60
2017-10-27T13:15:36.098Z,0.40
2017-10-27T13:18:03.522Z,0.70
2017-10-27T13:20:30.994Z,0.47
2017-10-27T13:22:58.420Z,0.40
2017-10-27T13:25:25.870Z,0.80
2017-10-27T13:27:53.315Z,0.63
2017-10-27T13:30:20.785Z,0.50
2017-10-27T13:32:48.242Z,1.13
2017-10-27T13:35:15.718Z,0.60
2017-10-27T13:37:43.149Z,1.03
2017-10-27T13:40:10.586Z,0.67
2017-10-27T13:42:38.019Z,0.40
2017-10-27T13:45:05.445Z,0.93
2017-10-27T13:47:32.866Z,0.60
2017-10-27T13:50:00.285Z,0.60
2017-10-27T13:52:27.728Z,0.23
2017-10-27T13:54:55.141Z,0.60
2017-10-27T13:57:22.666Z,0.47
2017-10-27T13:59:50.089Z,0.70
2017-10-27T14:02:18.369Z,0.40
2017-10-27T14:04:46.587Z,0.70
2017-10-27T14:07:14.010Z,0.60
2017-10-27T14:09:42.211Z,0.30
2017-10-27T14:12:11.230Z,0.43
2017-10-27T14:14:38.682Z,0.53
2017-10-27T14:17:06.109Z,0.70
2017-10-27T14:19:33.547Z,0.60
2017-10-27T14:22:01.068Z,0.33
2017-10-27T14:24:28.494Z,0.50
2017-10-27T14:26:55.986Z,0.40
2017-10-27T14:29:23.422Z,0.40
2017-10-27T14:31:50.910Z,0.90
2017-10-27T14:34:18.342Z,0.60
2017-10-27T14:36:45.831Z,0.40
2017-10-27T14:39:13.293Z,1.20
2017-10-27T14:41:40.726Z,0.40
2017-10-27T14:44:08.159Z,1.20
2017-10-27T14:46:35.583Z,0.60
2017-10-27T14:49:03.014Z,0.57
2017-10-27T14:51:30.437Z,1.10
2017-10-27T14:53:57.881Z,0.40
2017-10-27T14:56:25.306Z,0.43
2017-10-27T14:58:52.729Z,0.83
2017-10-27T15:01:20.925Z,0.90
2017-10-27T15:03:48.420Z,0.70
2017-10-27T15:06:15.854Z,0.63
2017-10-27T15:08:43.274Z,1.17
2017-10-27T15:11:10.715Z,0.57
2017-10-27T15:13:38.162Z,0.80
2017-10-27T15:16:05.630Z,0.90
2017-10-27T15:18:33.078Z,0.87
2017-10-27T15:21:00.493Z,0.83
2017-10-27T15:23:28.723Z,0.73
2017-10-27T15:25:56.186Z,0.73
2017-10-27T15:28:23.658Z,0.40
2017-10-27T15:30:51.133Z,0.63
2017-10-27T15:33:18.579Z,1.00
2017-10-27T15:35:46.002Z,0.77
2017-10-27T15:38:13.447Z,1.43
2017-10-27T15:40:41.642Z,0.87
2017-10-27T15:43:09.230Z,0.50
2017-10-27T15:45:36.637Z,0.50
2017-10-27T15:48:04.155Z,0.57
2017-10-27T15:50:31.626Z,0.63
2017-10-27T15:52:59.053Z,1.27
2017-10-27T15:55:26.478Z,0.50
2017-10-27T15:57:54.006Z,1.10
2017-10-27T16:00:21.438Z,0.50
2017-10-27T16:02:48.858Z,1.00
2017-10-27T16:05:17.806Z,0.93
2017-10-27T16:07:45.273Z,0.77
2017-10-27T16:10:12.730Z,1.00
2017-10-27T16:12:40.202Z,1.00
2017-10-27T16:15:07.663Z,0.60
2017-10-27T16:17:35.082Z,0.67
2017-10-27T16:20:03.306Z,1.07
2017-10-27T16:22:30.735Z,1.37
2017-10-27T16:24:58.167Z,0.70
2017-10-27T16:27:25.593Z,0.70
2017-10-27T16:29:53.054Z,0.40
2017-10-27T16:32:20.477Z,0.97
2017-10-27T16:34:48.007Z,0.97
2017-10-27T16:37:15.538Z,0.90
2017-10-27T16:39:42.954Z,1.27
2017-10-27T16:42:11.166Z,0.93
2017-10-27T16:44:38.629Z,1.03
2017-10-27T16:47:06.093Z,0.77
2017-10-27T16:49:33.533Z,0.60
2017-10-27T16:52:00.962Z,0.50
2017-10-27T16:54:29.154Z,0.87
2017-10-27T16:56:57.367Z,0.70
2017-10-27T16:59:24.843Z,0.63
2017-10-27T17:01:52.271Z,0.80
2017-10-27T17:04:19.693Z,0.90
2017-10-27T17:06:47.155Z,1.50
2017-10-27T17:09:14.594Z,0.90
2017-10-27T17:11:42.038Z,0.83
2017-10-27T17:14:09.469Z,0.60
2017-10-27T17:16:37.682Z,0.40
2017-10-27T17:19:05.111Z,1.07
2017-10-27T17:21:32.533Z,0.73
2017-10-27T17:24:00.062Z,0.90
2017-10-27T17:26:27.522Z,0.60
2017-10-27T17:28:54.949Z,0.70
2017-10-27T17:31:23.181Z,1.27
2017-10-27T17:33:50.730Z,0.53
2017-10-27T17:36:18.190Z,0.70
2017-10-27T17:38:45.654Z,0.50
2017-10-27T17:41:13.109Z,1.63
2017-10-27T17:43:40.573Z,0.90
2017-10-27T17:46:08.034Z,0.90
2017-10-27T17:48:35.457Z,1.00
2017-10-27T17:51:03.645Z,0.90
2017-10-27T17:53:31.073Z,1.03
2017-10-27T17:55:58.603Z,0.73
2017-10-27T17:58:26.054Z,0.70
2017-10-27T18:00:53.474Z,0.70
2017-10-27T18:03:21.674Z,0.70
2017-10-27T18:05:49.286Z,1.30
2017-10-27T18:08:17.380Z,1.03
2017-10-27T18:10:44.817Z,0.40
2017-10-27T18:13:12.262Z,0.63
2017-10-27T18:15:39.722Z,1.40
2017-10-27T18:18:07.187Z,1.30
2017-10-27T18:20:34.649Z,0.70
2017-10-27T18:23:02.065Z,0.43
2017-10-27T18:25:30.257Z,0.80
2017-10-27T18:27:57.751Z,1.20
2017-10-27T18:30:25.209Z,1.10
2017-10-27T18:32:52.665Z,0.80
2017-10-27T18:35:20.098Z,0.97
2017-10-27T18:37:47.594Z,0.73
2017-10-27T18:40:15.058Z,0.70
2017-10-27T18:42:42.529Z,1.33
2017-10-27T18:45:09.982Z,0.50
2017-10-27T18:47:37.443Z,2.00
2017-10-27T18:50:04.871Z,1.17
2017-10-27T18:52:32.330Z,1.00
2017-10-27T18:54:59.762Z,0.90
2017-10-27T18:57:27.195Z,0.50
2017-10-27T18:59:54.602Z,0.70
2017-10-27T19:02:22.807Z,0.73
2017-10-27T19:04:50.230Z,0.67
2017-10-27T19:07:18.425Z,0.70
2017-10-27T19:09:45.845Z,0.60
2017-10-27T19:12:13.298Z,0.70
2017-10-27T19:14:40.722Z,0.50
2017-10-27T19:17:08.249Z,1.27
2017-10-27T19:19:35.673Z,0.60
2017-10-27T19:22:03.094Z,0.70
2017-10-27T19:24:31.290Z,0.43
2017-10-27T19:26:58.707Z,0.90
2017-10-27T19:29:26.151Z,1.13
2017-10-27T19:31:53.602Z,0.90
2017-10-27T19:34:21.033Z,0.80
2017-10-27T19:36:48.454Z,0.80
2017-10-27T19:39:16.659Z,0.50
2017-10-27T19:41:44.078Z,0.60
2017-10-27T19:44:11.515Z,1.20
2017-10-27T19:46:38.938Z,0.73
2017-10-27T19:49:06.382Z,0.80
2017-10-27T19:51:34.570Z,0.60
2017-10-27T19:54:02.786Z,0.40
2017-10-27T19:56:30.246Z,0.60
2017-10-27T19:58:57.669Z,0.43
2017-10-27T20:01:25.872Z,0.70
2017-10-27T20:03:53.364Z,0.80
2017-10-27T20:06:20.785Z,0.43
2017-10-27T20:08:48.207Z,0.63
2017-10-27T20:11:15.638Z,0.53
2017-10-27T20:13:43.066Z,0.40
2017-10-27T20:16:10.641Z,0.60
2017-10-27T20:18:38.052Z,0.47
2017-10-27T20:21:05.481Z,0.53
2017-10-27T20:23:33.681Z,0.77
2017-10-27T20:26:01.169Z,0.70
2017-10-27T20:28:29.357Z,0.60
2017-10-27T20:30:57.567Z,0.73
2017-10-27T20:33:24.973Z,0.67
2017-10-27T20:35:52.398Z,1.07
2017-10-27T20:38:19.835Z,0.40
2017-10-27T20:40:47.263Z,0.70
2017-10-27T20:43:15.474Z,0.60
2017-10-27T20:45:42.894Z,0.90
2017-10-27T20:48:10.327Z,0.73
2017-10-27T20:50:38.518Z,0.80
2017-10-27T20:53:05.968Z,0.80
2017-10-27T20:55:33.383Z,1.03
2017-10-27T20:58:00.823Z,0.80
2017-10-27T21:00:29.019Z,0.77
2017-10-27T21:02:56.462Z,0.63
2017-10-27T21:05:24.654Z,1.17
2017-10-27T21:07:52.855Z,0.80
2017-10-27T21:10:20.299Z,0.77
2017-10-27T21:12:48.477Z,0.53
2017-10-27T21:15:15.914Z,1.00
2017-10-27T21:17:43.333Z,0.70
2017-10-27T21:20:10.763Z,0.50
2017-10-27T21:22:38.185Z,1.20
2017-10-27T21:25:05.642Z,0.60
2017-10-27T21:27:33.064Z,0.70
2017-10-27T21:30:00.520Z,1.10
2017-10-27T21:32:27.948Z,0.70
2017-10-27T21:34:56.154Z,0.90
2017-10-27T21:37:23.574Z,0.50
2017-10-27T21:39:51.007Z,0.80
2017-10-27T21:42:18.430Z,0.70
2017-10-27T21:44:45.858Z,0.97
2017-10-27T21:47:13.290Z,0.53
2017-10-27T21:49:40.718Z,0.80
2017-10-27T21:52:08.150Z,1.00
2017-10-27T21:54:36.374Z,0.97
2017-10-27T21:57:03.806Z,0.70
2017-10-27T21:59:31.302Z,0.93
2017-10-27T22:01:58.759Z,1.47
2017-10-27T22:04:26.216Z,1.00
2017-10-27T22:06:53.652Z,1.13
2017-10-27T22:09:21.088Z,1.33
2017-10-27T22:11:50.128Z,1.20
2017-10-27T22:14:17.540Z,0.90
2017-10-27T22:16:44.983Z,1.03
2017-10-27T22:19:12.410Z,1.10
2017-10-27T22:21:39.838Z,1.67
2017-10-27T22:24:08.043Z,0.80
2017-10-27T22:26:35.518Z,0.60
2017-10-27T22:29:02.951Z,1.63
2017-10-27T22:31:30.373Z,1.20
2017-10-27T22:33:57.812Z,0.67
2017-10-27T22:36:25.267Z,0.40
2017-10-27T22:38:52.698Z,1.03
2017-10-27T22:41:20.118Z,0.90
2017-10-27T22:43:47.549Z,0.70
2017-10-27T22:46:14.971Z,0.73
2017-10-27T22:48:43.170Z,0.57
2017-10-27T22:51:10.594Z,1.00
2017-10-27T22:53:38.826Z,0.80
2017-10-27T22:56:06.246Z,0.50
2017-10-27T22:58:34.435Z,0.70
2017-10-27T23:01:01.871Z,0.90
2017-10-27T23:03:29.385Z,1.07
2017-10-27T23:05:56.963Z,0.70
2017-10-27T23:08:24.386Z,0.50
2017-10-27T23:10:51.878Z,0.40
2017-10-27T23:13:19.333Z,0.77
2017-10-27T23:15:46.799Z,1.10
2017-10-27T23:18:14.222Z,0.90
2017-10-27T23:20:42.438Z,0.70
2017-10-27T23:23:09.862Z,0.90
2017-10-27T23:25:38.059Z,1.60
2017-10-27T23:28:05.548Z,0.40
2017-10-27T23:30:32.974Z,0.80
2017-10-27T23:33:00.470Z,0.47
2017-10-27T23:35:27.922Z,0.60
2017-10-27T23:37:55.351Z,0.63
2017-10-27T23:40:23.558Z,0.50
2017-10-27T23:42:51.031Z,0.50
2017-10-27T23:45:18.454Z,0.70
2017-10-27T23:47:45.894Z,0.70
2017-10-27T23:50:14.082Z,0.73
2017-10-27T23:52:42.297Z,0.60
2017-10-27T23:55:09.715Z,0.80
2017-10-27T23:57:37.913Z,0.70
